createdAt,value
2016-02-19T00:00:11.391Z,24.95
2016-02-19T00:01:11.377Z,25.01
2016-02-19T00:02:11.364Z,24.95
2016-02-19T00:03:11.352Z,24.92
2016-02-19T00:04:11.338Z,24.9
2016-02-19T00:05:11.326Z,24.88
2016-02-19T00:06:11.297Z,24.8
2016-02-19T00:07:11.284Z,24.76
2016-02-19T00:08:11.272Z,24.8
2016-02-19T00:09:11.258Z,24.6
2016-02-19T00:10:11.246Z,24.64
2016-02-19T00:11:11.217Z,24.63
2016-02-19T00:12:11.204Z,24.63
2016-02-19T00:13:11.176Z,24.64
2016-02-19T00:14:11.178Z,24.57
2016-02-19T00:15:11.165Z,24.69
2016-02-19T00:16:11.136Z,24.61
2016-02-19T00:17:11.139Z,24.6
2016-02-19T00:18:11.111Z,24.6
2016-02-19T00:19:11.082Z,24.64
2016-02-19T00:20:11.069Z,24.63
2016-02-19T00:21:11.072Z,24.69
2016-02-19T00:22:11.043Z,24.77
2016-02-19T00:23:11.014Z,24.77
2016-02-19T00:24:11.002Z,24.85
2016-02-19T00:25:10.848Z,24.94
2016-02-19T00:26:10.975Z,24.9
2016-02-19T00:27:10.964Z,24.87
2016-02-19T00:28:10.950Z,24.95
2016-02-19T00:29:10.921Z,25.01
2016-02-19T00:30:10.912Z,25.02
2016-02-19T00:31:10.884Z,25.12
2016-02-19T00:32:10.871Z,25.05
2016-02-19T00:33:10.874Z,25.12
2016-02-19T00:34:10.861Z,25.16
2016-02-19T00:35:10.831Z,25.25
2016-02-19T00:36:10.820Z,25.34
2016-02-19T00:37:10.806Z,25.35
2016-02-19T00:38:10.777Z,25.38
2016-02-19T00:39:10.765Z,25.47
2016-02-19T00:40:10.752Z,25.42
2016-02-19T00:41:10.723Z,25.44
2016-02-19T00:42:10.711Z,25.49
2016-02-19T00:43:10.713Z,25.39
2016-02-19T00:44:10.684Z,25.44
2016-02-19T00:45:10.672Z,25.38
2016-02-19T00:46:10.658Z,25.47
2016-02-19T00:47:10.630Z,25.46
2016-02-19T00:48:10.616Z,25.42
2016-02-19T00:49:10.605Z,25.44
2016-02-19T00:50:10.466Z,25.5
2016-02-19T00:51:10.578Z,25.42
2016-02-19T00:52:10.550Z,25.43
2016-02-19T00:53:10.537Z,25.42
2016-02-19T00:54:10.508Z,25.39
2016-02-19T00:55:10.527Z,25.42
2016-02-19T00:56:10.498Z,25.57
2016-02-19T00:57:10.469Z,25.59
2016-02-19T00:58:10.457Z,25.67
2016-02-19T00:59:10.443Z,25.65
2016-02-19T01:00:10.431Z,25.62
2016-02-19T01:01:10.418Z,25.62
2016-02-19T01:02:10.248Z,25.65
2016-02-19T01:03:10.548Z,25.64
2016-02-19T01:04:10.535Z,25.61
2016-02-19T01:05:10.350Z,25.53
2016-02-19T01:06:10.330Z,25.38
2016-02-19T01:07:10.333Z,25.42
2016-02-19T01:08:10.304Z,25.3
2016-02-19T01:09:10.307Z,25.19
2016-02-19T01:10:10.263Z,25.12
2016-02-19T01:11:10.093Z,25.05
2016-02-19T01:12:10.268Z,25.01
2016-02-19T01:13:10.224Z,25
2016-02-19T01:14:10.212Z,24.92
2016-02-19T01:15:10.229Z,24.91
2016-02-19T01:16:10.201Z,24.88
2016-02-19T01:17:10.188Z,24.79
2016-02-19T01:18:10.144Z,24.8
2016-02-19T01:19:10.131Z,24.76
2016-02-19T01:20:10.117Z,24.77
2016-02-19T01:21:10.105Z,24.79
2016-02-19T01:22:10.077Z,24.85
2016-02-19T01:23:10.064Z,24.75
2016-02-19T01:24:10.035Z,24.73
2016-02-19T01:25:10.023Z,24.73
2016-02-19T01:26:10.009Z,24.75
2016-02-19T01:27:09.997Z,24.6
2016-02-19T01:28:09.967Z,24.6
2016-02-19T01:29:09.955Z,24.71
2016-02-19T01:30:09.942Z,24.68
2016-02-19T01:31:09.976Z,24.64
2016-02-19T01:32:09.901Z,24.59
2016-02-19T01:33:09.888Z,24.6
2016-02-19T01:34:09.874Z,24.53
2016-02-19T01:35:09.861Z,24.49
2016-02-19T01:36:09.833Z,24.52
2016-02-19T01:37:09.851Z,24.6
2016-02-19T01:38:09.823Z,24.64
2016-02-19T01:39:09.794Z,24.68
2016-02-19T01:40:09.781Z,24.79
2016-02-19T01:41:09.769Z,24.83
2016-02-19T01:42:09.755Z,24.9
2016-02-19T01:43:09.726Z,24.91
2016-02-19T01:44:09.715Z,25
2016-02-19T01:45:09.701Z,25.07
2016-02-19T01:46:09.673Z,25.01
2016-02-19T01:47:09.676Z,25.1
2016-02-19T01:48:09.646Z,25.15
2016-02-19T01:49:09.634Z,25.17
2016-02-19T01:50:09.621Z,25.15
2016-02-19T01:51:09.608Z,25.19
2016-02-19T01:52:09.579Z,25.17
2016-02-19T01:53:09.567Z,25.2
2016-02-19T01:54:09.538Z,25.17
2016-02-19T01:55:09.540Z,25.24
2016-02-19T01:56:09.528Z,25.24
2016-02-19T01:57:09.499Z,25.25
2016-02-19T01:58:09.502Z,25.3
2016-02-19T01:59:09.472Z,25.37
2016-02-19T02:00:09.475Z,25.38
2016-02-19T02:01:09.431Z,25.49
2016-02-19T02:02:09.418Z,25.42
2016-02-19T02:03:09.421Z,25.52
2016-02-19T02:04:09.393Z,25.46
2016-02-19T02:05:09.380Z,25.5
2016-02-19T02:06:09.351Z,25.53
2016-02-19T02:07:09.369Z,25.53
2016-02-19T02:08:09.325Z,25.54
2016-02-19T02:09:09.328Z,25.52
2016-02-19T02:10:09.299Z,25.49
2016-02-19T02:11:09.287Z,25.47
2016-02-19T02:12:09.257Z,25.37
2016-02-19T02:13:09.246Z,25.39
2016-02-19T02:14:09.248Z,25.46
2016-02-19T02:15:09.218Z,25.49
2016-02-19T02:16:09.207Z,25.49
2016-02-19T02:17:09.193Z,25.52
2016-02-19T02:18:09.181Z,25.49
2016-02-19T02:19:09.168Z,25.52
2016-02-19T02:20:09.139Z,25.61
2016-02-19T02:21:09.126Z,25.56
2016-02-19T02:22:09.098Z,25.53
2016-02-19T02:23:09.085Z,25.52
2016-02-19T02:24:09.072Z,25.46
2016-02-19T02:25:09.058Z,25.25
2016-02-19T02:26:09.030Z,25.34
2016-02-19T02:27:09.033Z,25.28
2016-02-19T02:28:09.004Z,25.16
2016-02-19T02:29:08.992Z,25.1
2016-02-19T02:30:09.009Z,25.09
2016-02-19T02:31:08.965Z,25.06
2016-02-19T02:32:08.953Z,24.92
2016-02-19T02:33:08.924Z,24.92
2016-02-19T02:34:08.910Z,24.82
2016-02-19T02:35:08.914Z,24.83
2016-02-19T02:36:08.900Z,24.76
2016-02-19T02:37:08.903Z,24.77
2016-02-19T02:38:08.843Z,24.68
2016-02-19T02:39:08.830Z,24.69
2016-02-19T02:40:08.818Z,24.79
2016-02-19T02:41:08.804Z,24.69
2016-02-19T02:42:08.777Z,24.76
2016-02-19T02:43:08.823Z,24.73
2016-02-19T02:44:08.739Z,24.71
2016-02-19T02:45:08.723Z,24.63
2016-02-19T02:46:13.047Z,24.67
2016-02-19T02:47:08.706Z,24.67
2016-02-19T02:48:08.677Z,24.61
2016-02-19T02:49:08.695Z,24.57
2016-02-19T02:50:08.667Z,24.59
2016-02-19T02:51:08.639Z,24.59
2016-02-19T02:52:08.641Z,24.54
2016-02-19T02:53:08.597Z,24.56
2016-02-19T02:54:08.584Z,24.6
2016-02-19T02:55:08.650Z,24.59
2016-02-19T02:56:08.551Z,24.59
2016-02-19T02:57:08.523Z,24.75
2016-02-19T02:58:08.509Z,24.85
2016-02-19T02:59:08.872Z,24.79
2016-02-19T03:00:08.483Z,24.8
2016-02-19T03:01:08.471Z,25.02
2016-02-19T03:02:08.458Z,25.07
2016-02-19T03:03:08.430Z,25.1
2016-02-19T03:04:08.416Z,25.1
2016-02-19T03:05:08.403Z,25.2
2016-02-19T03:06:08.391Z,25.28
2016-02-19T03:07:08.362Z,25.28
2016-02-19T03:08:08.365Z,25.22
2016-02-19T03:09:08.336Z,25.3
2016-02-19T03:10:08.323Z,25.31
2016-02-19T03:11:08.294Z,25.27
2016-02-19T03:12:08.297Z,25.22
2016-02-19T03:13:08.268Z,25.31
2016-02-19T03:14:08.255Z,25.3
2016-02-19T03:15:08.227Z,25.22
2016-02-19T03:16:08.245Z,25.37
2016-02-19T03:17:08.218Z,25.34
2016-02-19T03:18:08.204Z,25.37
2016-02-19T03:19:08.176Z,25.44
2016-02-19T03:20:08.178Z,25.43
2016-02-19T03:21:08.134Z,25.43
2016-02-19T03:22:08.121Z,25.5
2016-02-19T03:23:08.108Z,25.54
2016-02-19T03:24:08.095Z,25.5
2016-02-19T03:25:08.098Z,25.57
2016-02-19T03:26:08.053Z,25.61
2016-02-19T03:27:08.057Z,25.5
2016-02-19T03:28:08.028Z,25.47
2016-02-19T03:29:08.030Z,25.38
2016-02-19T03:30:08.002Z,25.39
2016-02-19T03:31:07.989Z,25.43
2016-02-19T03:32:07.976Z,25.52
2016-02-19T03:33:07.963Z,25.47
2016-02-19T03:34:07.934Z,25.47
2016-02-19T03:35:07.922Z,25.44
2016-02-19T03:36:07.893Z,25.43
2016-02-19T03:37:07.897Z,25.43
2016-02-19T03:38:07.867Z,25.47
2016-02-19T03:39:07.855Z,25.44
2016-02-19T03:40:07.857Z,25.47
2016-02-19T03:41:07.828Z,25.54
2016-02-19T03:42:07.799Z,25.59
2016-02-19T03:43:07.818Z,25.46
2016-02-19T03:44:07.790Z,25.42
2016-02-19T03:45:07.760Z,25.39
2016-02-19T03:46:07.749Z,25.27
2016-02-19T03:47:07.719Z,25.27
2016-02-19T03:48:07.722Z,25.13
2016-02-19T03:49:07.693Z,25.12
2016-02-19T03:50:07.696Z,25.01
2016-02-19T03:51:07.652Z,25.02
2016-02-19T03:52:07.654Z,24.91
2016-02-19T03:53:07.626Z,24.91
2016-02-19T03:54:07.613Z,24.8
2016-02-19T03:55:07.615Z,24.75
2016-02-19T03:56:07.573Z,24.77
2016-02-19T03:57:07.575Z,24.68
2016-02-19T03:58:07.546Z,24.76
2016-02-19T03:59:07.533Z,24.79
2016-02-19T04:00:07.504Z,24.75
2016-02-19T04:01:07.507Z,24.57
2016-02-19T04:02:07.478Z,24.61
2016-02-19T04:03:07.481Z,24.61
2016-02-19T04:04:07.469Z,24.63
2016-02-19T04:05:07.439Z,24.64
2016-02-19T04:06:07.427Z,24.64
2016-02-19T04:07:07.414Z,24.59
2016-02-19T04:08:07.385Z,24.61
2016-02-19T04:09:07.200Z,24.61
2016-02-19T04:10:07.344Z,24.61
2016-02-19T04:11:07.346Z,24.53
2016-02-19T04:12:07.318Z,24.56
2016-02-19T04:13:07.336Z,24.57
2016-02-19T04:14:07.292Z,24.54
2016-02-19T04:15:07.279Z,24.75
2016-02-19T04:16:07.271Z,24.71
2016-02-19T04:17:07.227Z,24.82
2016-02-19T04:18:07.229Z,24.79
2016-02-19T04:19:07.201Z,24.87
2016-02-19T04:20:07.188Z,24.92
2016-02-19T04:21:07.175Z,25.05
2016-02-19T04:22:07.146Z,25.07
2016-02-19T04:23:07.149Z,25.1
2016-02-19T04:24:07.121Z,25.17
2016-02-19T04:25:07.108Z,25.27
2016-02-19T04:26:07.095Z,25.32
2016-02-19T04:27:07.066Z,25.31
2016-02-19T04:28:07.053Z,25.27
2016-02-19T04:29:07.039Z,25.28
2016-02-19T04:30:06.856Z,25.27
2016-02-19T04:31:07.014Z,25.31
2016-02-19T04:32:07.017Z,25.34
2016-02-19T04:33:06.973Z,25.22
2016-02-19T04:34:06.960Z,25.32
2016-02-19T04:35:06.947Z,25.28
2016-02-19T04:36:06.934Z,25.28
2016-02-19T04:37:06.905Z,25.35
2016-02-19T04:38:06.908Z,25.32
2016-02-19T04:39:06.863Z,25.28
2016-02-19T04:40:06.883Z,25.35
2016-02-19T04:41:06.838Z,25.52
2016-02-19T04:42:06.825Z,25.49
2016-02-19T04:43:06.813Z,25.5
2016-02-19T04:44:06.815Z,25.43
2016-02-19T04:45:06.787Z,25.43
2016-02-19T04:46:06.774Z,25.53
2016-02-19T04:47:06.745Z,25.57
2016-02-19T04:48:06.732Z,25.52
2016-02-19T04:49:06.718Z,25.54
2016-02-19T04:50:06.721Z,25.5
2016-02-19T04:51:06.678Z,25.47
2016-02-19T04:52:06.681Z,25.39
2016-02-19T04:53:06.668Z,25.44
2016-02-19T04:54:06.639Z,25.46
2016-02-19T04:55:06.625Z,25.49
2016-02-19T04:56:06.613Z,25.44
2016-02-19T04:57:06.584Z,25.47
2016-02-19T04:58:06.572Z,25.42
2016-02-19T04:59:06.542Z,25.43
2016-02-19T05:00:06.545Z,25.49
2016-02-19T05:01:06.533Z,25.5
2016-02-19T05:02:06.503Z,25.59
2016-02-19T05:03:06.507Z,25.53
2016-02-19T05:04:06.478Z,25.53
2016-02-19T05:05:06.480Z,25.46
2016-02-19T05:06:06.453Z,25.46
2016-02-19T05:07:06.424Z,25.39
2016-02-19T05:08:06.427Z,25.42
2016-02-19T05:09:06.272Z,25.28
2016-02-19T05:10:06.385Z,25.2
2016-02-19T05:11:06.357Z,25.13
2016-02-19T05:12:06.437Z,25.02
2016-02-19T05:13:06.331Z,25
2016-02-19T05:14:06.349Z,24.94
2016-02-19T05:15:06.492Z,24.82
2016-02-19T05:16:06.277Z,24.83
2016-02-19T05:17:06.279Z,24.68
2016-02-19T05:18:06.329Z,24.68
2016-02-19T05:19:06.237Z,24.71
2016-02-19T05:20:06.224Z,24.67
2016-02-19T05:21:06.197Z,24.6
2016-02-19T05:22:06.152Z,24.63
2016-02-19T05:23:06.139Z,24.63
2016-02-19T05:24:06.080Z,24.64
2016-02-19T05:25:06.097Z,24.61
2016-02-19T05:26:06.031Z,24.63
2016-02-19T05:27:06.028Z,24.59
2016-02-19T05:28:05.993Z,24.64
2016-02-19T05:29:05.975Z,24.6
2016-02-19T05:30:05.972Z,24.59
2016-02-19T05:31:05.926Z,24.59
2016-02-19T05:32:05.911Z,24.53
2016-02-19T05:33:05.896Z,24.5
2016-02-19T05:34:05.882Z,24.39
2016-02-19T05:35:05.866Z,24.39
2016-02-19T05:36:05.837Z,24.49
2016-02-19T05:37:05.823Z,24.44
2016-02-19T05:38:05.825Z,24.54
2016-02-19T05:39:05.780Z,24.53
2016-02-19T05:40:05.781Z,24.61
2016-02-19T05:41:05.785Z,24.71
2016-02-19T05:42:05.740Z,24.79
2016-02-19T05:43:05.712Z,24.8
2016-02-19T05:44:05.700Z,24.91
2016-02-19T05:45:05.686Z,24.94
2016-02-19T05:46:05.673Z,25.05
2016-02-19T05:47:05.661Z,25.09
2016-02-19T05:48:05.631Z,25.12
2016-02-19T05:49:05.634Z,25.16
2016-02-19T05:50:05.715Z,25.12
2016-02-19T05:51:05.594Z,25.09
2016-02-19T05:52:05.611Z,25.12
2016-02-19T05:53:05.567Z,25.17
2016-02-19T05:54:05.539Z,25.12
2016-02-19T05:55:05.541Z,25.19
2016-02-19T05:56:05.528Z,25.24
2016-02-19T05:57:05.530Z,25.17
2016-02-19T05:58:05.472Z,25.22
2016-02-19T05:59:05.458Z,25.27
2016-02-19T06:00:05.648Z,25.28
2016-02-19T06:01:05.432Z,25.28
2016-02-19T06:02:05.498Z,25.3
2016-02-19T06:03:05.391Z,25.38
2016-02-19T06:04:05.379Z,25.42
2016-02-19T06:05:05.271Z,25.43
2016-02-19T06:06:05.203Z,25.44
2016-02-19T06:07:05.409Z,25.42
2016-02-19T06:08:05.317Z,25.38
2016-02-19T06:09:05.305Z,25.5
2016-02-19T06:10:05.291Z,25.44
2016-02-19T06:11:05.279Z,25.44
2016-02-19T06:12:05.281Z,25.39
2016-02-19T06:13:05.237Z,25.42
2016-02-19T06:14:05.239Z,25.42
2016-02-19T06:15:05.196Z,25.42
2016-02-19T06:16:05.199Z,25.38
2016-02-19T06:17:05.169Z,25.27
2016-02-19T06:18:05.173Z,25.31
2016-02-19T06:19:05.128Z,25.2
2016-02-19T06:20:05.130Z,25.13
2016-02-19T06:21:05.102Z,25.12
2016-02-19T06:22:05.090Z,25.01
2016-02-19T06:23:05.076Z,25.05
2016-02-19T06:24:05.048Z,25.01
2016-02-19T06:25:05.051Z,24.94
2016-02-19T06:26:05.085Z,24.94
2016-02-19T06:27:05.024Z,24.94
2016-02-19T06:28:04.981Z,24.8
2016-02-19T06:29:04.999Z,24.79
2016-02-19T06:30:04.970Z,24.83
2016-02-19T06:31:04.942Z,24.83
2016-02-19T06:32:04.945Z,24.71
2016-02-19T06:33:04.931Z,24.73
2016-02-19T06:34:04.965Z,24.59
2016-02-19T06:35:04.874Z,24.64
2016-02-19T06:36:04.909Z,24.68
2016-02-19T06:37:04.864Z,24.63
2016-02-19T06:38:04.914Z,24.53
2016-02-19T06:39:04.839Z,24.52
2016-02-19T06:40:04.795Z,24.42
2016-02-19T06:41:04.781Z,24.42
2016-02-19T06:42:04.753Z,24.56
2016-02-19T06:43:04.755Z,24.44
2016-02-19T06:46:03.950Z,24.44
2016-02-19T06:47:04.423Z,24.5
2016-02-19T06:48:03.894Z,24.54
2016-02-19T06:49:04.038Z,24.53
2016-02-19T06:50:03.915Z,24.47
2016-02-19T06:51:03.855Z,24.47
2016-02-19T06:52:03.842Z,24.47
2016-02-19T06:53:03.844Z,24.49
2016-02-19T06:54:03.802Z,24.47
2016-02-19T06:55:03.804Z,24.47
2016-02-19T06:56:03.760Z,24.57
2016-02-19T06:57:03.809Z,24.6
2016-02-19T06:58:02.999Z,24.64
2016-02-19T06:59:03.736Z,24.63
2016-02-19T07:00:03.926Z,24.75
2016-02-19T07:01:03.679Z,24.77
2016-02-19T07:02:03.744Z,24.8
2016-02-19T07:03:06.778Z,24.88
2016-02-19T07:04:03.718Z,24.95
2016-02-19T07:05:03.632Z,25.06
2016-02-19T07:06:03.870Z,25.05
2016-02-19T07:07:03.590Z,25.17
2016-02-19T07:08:03.578Z,25.16
2016-02-19T07:09:03.565Z,25.24
2016-02-19T07:10:03.598Z,25.25
2016-02-19T07:11:06.742Z,25.27
2016-02-19T07:12:03.526Z,25.3
2016-02-19T07:13:03.810Z,25.24
2016-02-19T07:14:03.500Z,25.19
2016-02-19T07:15:03.533Z,25.16
2016-02-19T07:16:03.553Z,25.22
2016-02-19T07:17:03.414Z,25.31
2016-02-19T07:18:03.416Z,25.27
2016-02-19T07:19:03.482Z,25.28
2016-02-19T07:20:03.563Z,25.24
2016-02-19T07:21:03.675Z,25.28
2016-02-19T07:22:03.366Z,25.2
2016-02-19T07:23:03.431Z,25.37
2016-02-19T07:24:03.371Z,25.37
2016-02-19T07:25:06.779Z,25.47
2016-02-19T07:26:03.533Z,25.46
2016-02-19T07:27:03.316Z,25.49
2016-02-19T07:28:03.866Z,25.43
2016-02-19T07:29:03.212Z,25.43
2016-02-19T07:30:03.262Z,25.42
2016-02-19T07:31:03.218Z,25.37
2016-02-19T07:32:03.236Z,25.39
2016-02-19T07:33:03.177Z,25.3
2016-02-19T07:34:03.148Z,25.3
2016-02-19T07:35:03.228Z,25.15
2016-02-19T07:36:03.153Z,25.16
2016-02-19T07:37:03.109Z,25.05
2016-02-19T07:38:03.268Z,25.01
2016-02-19T07:39:03.067Z,24.94
2016-02-19T07:40:03.054Z,24.9
2016-02-19T07:41:03.386Z,24.82
2016-02-19T07:42:03.200Z,24.82
2016-02-19T07:43:03.078Z,24.87
2016-02-19T07:44:02.987Z,24.71
2016-02-19T07:45:02.989Z,24.69
2016-02-19T07:46:02.961Z,24.79
2016-02-19T07:47:02.933Z,24.79
2016-02-19T07:48:03.311Z,24.73
2016-02-19T07:49:02.922Z,24.71
2016-02-19T07:50:03.299Z,24.76
2016-02-19T07:51:02.866Z,24.64
2016-02-19T07:52:03.040Z,24.73
2016-02-19T07:53:02.886Z,24.6
2016-02-19T07:54:02.921Z,24.67
2016-02-19T07:55:03.094Z,24.6
2016-02-19T07:56:02.832Z,24.6
2016-02-19T07:57:03.163Z,24.54
2016-02-19T07:58:02.838Z,24.5
2016-02-19T07:59:02.855Z,24.49
2016-02-19T08:00:02.780Z,24.45
2016-02-19T08:01:02.829Z,24.42
2016-02-19T08:02:02.832Z,24.42
2016-02-19T08:03:03.038Z,24.47
2016-02-19T08:04:02.962Z,24.44
2016-02-19T08:05:03.034Z,24.44
2016-02-19T08:06:03.082Z,24.41
2016-02-19T08:07:03.007Z,24.42
2016-02-19T08:08:02.978Z,24.45
2016-02-19T08:09:02.950Z,24.44
2016-02-19T08:10:02.889Z,24.45
2016-02-19T08:11:02.908Z,24.5
2016-02-19T08:12:02.911Z,24.47
2016-02-19T08:13:02.914Z,24.57
2016-02-19T08:14:02.869Z,24.54
2016-02-19T08:15:02.919Z,24.6
2016-02-19T08:16:02.766Z,24.6
2016-02-19T08:17:02.831Z,24.57
2016-02-19T08:18:02.771Z,24.67
2016-02-19T08:19:02.804Z,24.69
2016-02-19T08:20:02.761Z,24.76
2016-02-19T08:21:02.747Z,24.79
2016-02-19T08:22:02.688Z,24.8
2016-02-19T08:23:02.660Z,24.94
2016-02-19T08:24:02.615Z,24.97
2016-02-19T08:25:02.633Z,25.05
2016-02-19T08:26:02.683Z,25.02
2016-02-19T08:27:02.670Z,25.05
2016-02-19T08:28:02.626Z,25.1
2016-02-19T08:29:02.503Z,25.2
2016-02-19T08:30:02.585Z,25.28
2016-02-19T08:31:02.587Z,25.24
2016-02-19T08:32:02.621Z,25.32
2016-02-19T08:33:02.484Z,25.37
2016-02-19T08:35:03.754Z,25.32
2016-02-19T08:36:02.492Z,25.34
2016-02-19T08:37:05.495Z,25.34
2016-02-19T08:38:02.481Z,25.32
2016-02-19T08:39:02.374Z,25.28
2016-02-19T08:40:02.502Z,25.32
2016-02-19T08:41:02.458Z,25.31
2016-02-19T08:42:02.678Z,25.28
2016-02-19T08:43:02.620Z,25.32
2016-02-19T08:44:02.419Z,25.37
2016-02-19T08:45:05.469Z,25.2
2016-02-19T08:46:02.408Z,25.27
2016-02-19T08:47:05.802Z,25.39
2016-02-19T08:48:02.555Z,25.5
2016-02-19T08:49:02.355Z,25.46
2016-02-19T08:50:02.685Z,25.46
2016-02-19T08:51:02.250Z,25.42
2016-02-19T08:52:05.346Z,25.32
2016-02-19T08:53:11.522Z,25.32
2016-02-19T08:54:02.274Z,25.22
2016-02-19T08:55:05.277Z,25.17
2016-02-19T08:56:02.654Z,25.12
2016-02-19T08:58:06.754Z,24.91
2016-02-19T08:59:12.928Z,24.88
2016-02-19T09:00:03.884Z,24.82
2016-02-19T09:01:07.605Z,24.79
2016-02-19T09:02:03.701Z,24.75
2016-02-19T09:03:06.642Z,24.75
2016-02-19T09:04:07.254Z,24.71
2016-02-19T09:05:03.570Z,24.69
2016-02-19T09:06:04.025Z,24.6
2016-02-19T09:07:06.590Z,24.67
2016-02-19T09:08:03.906Z,24.67
2016-02-19T09:09:04.048Z,24.6
2016-02-19T09:10:03.536Z,24.61
2016-02-19T09:11:04.586Z,24.61
2016-02-19T09:12:03.510Z,24.54
2016-02-19T09:13:03.825Z,24.56
2016-02-19T09:14:06.719Z,24.61
2016-02-19T09:15:06.439Z,24.57
2016-02-19T09:16:12.630Z,24.45
2016-02-19T09:17:03.726Z,24.49
2016-02-19T09:18:03.386Z,24.47
2016-02-19T09:19:03.419Z,24.49
2016-02-19T09:20:03.546Z,24.41
2016-02-19T09:21:03.283Z,24.42
2016-02-19T09:22:03.302Z,24.34
2016-02-19T09:23:03.336Z,24.38
2016-02-19T09:24:06.292Z,24.29
2016-02-19T09:25:06.513Z,24.42
2016-02-19T09:26:03.438Z,24.5
2016-02-19T09:27:03.456Z,24.49
2016-02-19T09:28:03.241Z,24.61
2016-02-19T09:29:03.196Z,24.69
2016-02-19T09:30:03.089Z,24.69
2016-02-19T09:31:06.779Z,24.71
2016-02-19T09:32:03.173Z,24.8
2016-02-19T09:33:03.035Z,24.92
2016-02-19T09:34:06.351Z,24.85
2016-02-19T09:35:03.103Z,24.97
2016-02-19T09:36:02.981Z,24.92
2016-02-19T09:37:08.795Z,25.06
2016-02-19T09:38:03.299Z,25.07
2016-02-19T09:39:03.598Z,25.07
2016-02-19T09:40:02.959Z,25.02
2016-02-19T09:41:02.947Z,25.06
2016-02-19T09:42:02.981Z,25.06
2016-02-19T09:43:02.874Z,25.1
2016-02-19T09:44:03.050Z,25.07
2016-02-19T09:45:02.630Z,25.16
2016-02-19T09:46:02.835Z,25.2
2016-02-19T09:47:02.572Z,25.17
2016-02-19T09:48:02.450Z,25.3
2016-02-19T09:49:02.438Z,25.27
2016-02-19T09:50:02.440Z,25.25
2016-02-19T09:51:02.396Z,25.32
2016-02-19T09:52:02.383Z,25.24
2016-02-19T09:53:02.541Z,25.35
2016-02-19T09:54:02.373Z,25.44
2016-02-19T09:55:02.438Z,25.5
2016-02-19T09:56:02.315Z,25.42
2016-02-19T09:57:02.334Z,25.44
2016-02-19T09:58:02.290Z,25.49
2016-02-19T09:59:02.261Z,25.43
2016-02-19T10:00:02.263Z,25.46
2016-02-19T10:01:02.079Z,25.38
2016-02-19T10:02:02.207Z,25.38
2016-02-19T10:03:02.240Z,25.3
2016-02-19T10:04:02.196Z,25.27
2016-02-19T10:05:02.246Z,25.22
2016-02-19T10:06:02.154Z,25.07
2016-02-19T10:07:02.143Z,25.01
2016-02-19T10:08:02.129Z,25.05
2016-02-19T10:09:02.226Z,25
2016-02-19T10:10:02.103Z,24.9
2016-02-19T10:11:02.090Z,24.95
2016-02-19T10:12:02.139Z,24.91
2016-02-19T10:13:02.049Z,24.88
2016-02-19T10:14:02.051Z,24.79
2016-02-19T10:15:02.070Z,24.82
2016-02-19T10:16:02.010Z,24.82
2016-02-19T10:17:01.997Z,24.76
2016-02-19T10:18:02.031Z,24.75
2016-02-19T10:19:01.939Z,24.82
2016-02-19T10:20:01.927Z,24.69
2016-02-19T10:21:01.914Z,24.69
2016-02-19T10:22:01.901Z,24.59
2016-02-19T10:23:01.936Z,24.63
2016-02-19T10:24:01.860Z,24.6
2016-02-19T10:25:01.862Z,24.52
2016-02-19T10:26:01.834Z,24.5
2016-02-19T10:27:01.836Z,24.56
2016-02-19T10:28:01.793Z,24.53
2016-02-19T10:29:01.779Z,24.56
2016-02-19T10:30:01.766Z,24.53
2016-02-19T10:31:01.988Z,24.52
2016-02-19T10:32:01.741Z,24.59
2016-02-19T10:33:01.728Z,24.44
2016-02-19T10:34:01.699Z,24.49
2016-02-19T10:35:01.842Z,24.59
2016-02-19T10:36:01.689Z,24.53
2016-02-19T10:37:01.832Z,24.54
2016-02-19T10:38:02.319Z,24.47
2016-02-19T10:39:02.243Z,24.47
2016-02-19T10:40:01.871Z,24.54
2016-02-19T10:41:02.045Z,24.45
2016-02-19T10:42:01.237Z,24.49
2016-02-19T10:43:01.926Z,24.47
2016-02-19T10:44:01.960Z,24.5
2016-02-19T10:45:01.776Z,24.45
2016-02-19T10:46:01.841Z,24.59
2016-02-19T10:47:02.156Z,24.68
2016-02-19T10:48:01.080Z,24.88
2016-02-19T10:49:01.817Z,25.07
2016-02-19T10:50:02.148Z,25.07
2016-02-19T10:51:01.839Z,25.15
2016-02-19T10:52:01.858Z,25.13
2016-02-19T10:53:01.766Z,25.24
2016-02-19T10:54:01.784Z,25.3
2016-02-19T10:55:01.772Z,25.34
2016-02-19T10:56:01.758Z,25.3
2016-02-19T10:57:01.729Z,25.39
2016-02-19T10:58:01.607Z,25.37
2016-02-19T10:59:01.610Z,25.5
2016-02-19T11:00:01.269Z,25.44
2016-02-19T11:01:01.522Z,25.43
2016-02-19T11:02:01.446Z,25.5
2016-02-19T11:03:01.542Z,25.46
2016-02-19T11:04:01.530Z,25.47
2016-02-19T11:05:01.017Z,25.43
2016-02-19T11:06:01.159Z,25.35
2016-02-19T11:07:00.398Z,25.35
2016-02-19T11:08:01.228Z,25.38
2016-02-19T11:09:01.168Z,25.49
2016-02-19T11:10:01.093Z,25.52
2016-02-19T11:11:01.220Z,25.44
2016-02-19T11:12:01.082Z,25.49
2016-02-19T11:13:01.304Z,25.59
2016-02-19T11:14:01.041Z,25.56
2016-02-19T11:15:00.997Z,25.59
2016-02-19T11:16:00.843Z,25.64
2016-02-19T11:17:01.315Z,25.59
2016-02-19T11:18:01.458Z,25.59
2016-02-19T11:19:01.445Z,25.61
2016-02-19T11:20:01.386Z,25.54
2016-02-19T11:21:01.653Z,25.61
2016-02-19T11:22:01.406Z,25.54
2016-02-19T11:23:04.565Z,25.54
2016-02-19T11:24:04.349Z,25.57
2016-02-19T11:25:04.289Z,25.65
2016-02-19T11:26:01.558Z,25.59
2016-02-19T11:27:01.279Z,25.56
2016-02-19T11:28:04.344Z,25.54
2016-02-19T11:29:02.113Z,25.5
2016-02-19T11:30:01.224Z,25.53
2016-02-19T11:31:01.087Z,25.46
2016-02-19T11:32:01.465Z,25.46
2016-02-19T11:33:01.388Z,25.39
2016-02-19T11:34:00.938Z,25.3
2016-02-19T11:35:01.051Z,25.31
2016-02-19T11:36:01.021Z,25.24
2016-02-19T11:37:00.838Z,25.2
2016-02-19T11:38:00.981Z,25.2
2016-02-19T11:39:01.076Z,25.17
2016-02-19T11:40:00.862Z,25.13
2016-02-19T11:41:00.957Z,25.13
2016-02-19T11:42:00.928Z,25.07
2016-02-19T11:43:00.915Z,25.06
2016-02-19T11:44:00.887Z,24.94
2016-02-19T11:45:01.186Z,24.94
2016-02-19T11:46:01.049Z,24.92
2016-02-19T11:47:00.895Z,24.79
2016-02-19T11:48:00.772Z,24.71
2016-02-19T11:49:00.776Z,24.71
2016-02-19T11:50:01.169Z,24.69
2016-02-19T11:51:00.843Z,24.75
2016-02-19T11:52:00.783Z,24.6
2016-02-19T11:53:00.896Z,24.59
2016-02-19T11:54:04.070Z,24.67
2016-02-19T11:55:00.730Z,24.64
2016-02-19T11:56:00.607Z,24.64
2016-02-19T11:57:00.578Z,24.59
2016-02-19T11:58:00.644Z,24.64
2016-02-19T11:59:00.490Z,24.71
2016-02-19T12:00:00.586Z,24.68
2016-02-19T12:01:00.558Z,24.69
2016-02-19T12:02:00.607Z,24.6
2016-02-19T12:03:00.611Z,24.69
2016-02-19T12:04:00.472Z,24.6
2016-02-19T12:05:00.397Z,24.69
2016-02-19T12:06:00.650Z,24.75
2016-02-19T12:07:00.262Z,24.8
2016-02-19T12:08:00.437Z,24.76
2016-02-19T12:09:00.360Z,24.75
2016-02-19T12:10:00.098Z,24.83
2016-02-19T12:11:00.053Z,24.83
2016-02-19T12:12:00.041Z,24.94
2016-02-19T12:13:00.293Z,25.01
2016-02-19T12:14:00.123Z,25.06
2016-02-19T12:15:00.284Z,25.17
2016-02-19T12:16:00.129Z,25.2
2016-02-19T12:17:00.413Z,25.22
2016-02-19T12:18:00.557Z,25.25
2016-02-19T12:19:00.184Z,25.3
2016-02-19T12:20:00.156Z,25.31
2016-02-19T12:21:00.206Z,25.37
2016-02-19T12:22:00.520Z,25.27
2016-02-19T12:23:00.117Z,25.37
2016-02-19T12:24:00.088Z,25.35
2016-02-19T12:25:00.013Z,25.44
2016-02-19T12:26:00.015Z,25.38
2016-02-19T12:27:00.174Z,25.37
2016-02-19T12:28:03.161Z,25.37
2016-02-19T12:29:00.039Z,25.34
2016-02-19T12:29:59.933Z,25.37
2016-02-19T12:30:59.888Z,25.32
2016-02-19T12:31:59.907Z,25.42
2016-02-19T12:32:59.847Z,25.37
2016-02-19T12:33:59.771Z,25.42
2016-02-19T12:34:59.899Z,25.42
2016-02-19T12:35:59.824Z,25.44
2016-02-19T12:36:59.655Z,25.5
2016-02-19T12:37:59.892Z,25.52
2016-02-19T12:38:59.879Z,25.59
2016-02-19T12:39:59.929Z,25.64
2016-02-19T12:41:00.118Z,25.67
2016-02-19T12:41:59.823Z,25.65
2016-02-19T12:42:59.702Z,25.64
2016-02-19T12:43:59.595Z,25.64
2016-02-19T12:44:59.629Z,25.56
2016-02-19T12:45:59.820Z,25.59
2016-02-19T12:46:59.916Z,25.5
2016-02-19T12:47:59.669Z,25.43
2016-02-19T12:48:59.609Z,25.46
2016-02-19T12:49:59.611Z,25.35
2016-02-19T12:50:59.661Z,25.27
2016-02-19T12:51:59.601Z,25.31
2016-02-19T12:52:59.650Z,25.24
2016-02-19T12:53:59.717Z,25.24
2016-02-19T12:54:59.609Z,25.17
2016-02-19T12:55:59.406Z,25.17
2016-02-19T12:56:59.440Z,25.09
2016-02-19T12:57:59.536Z,25.15
2016-02-19T12:58:59.446Z,25.02
2016-02-19T12:59:59.385Z,25.02